Time;durP1;ratioP1;P1;durP2;ratioP2;P2;SDS_P1;SDS_P2;PMS_P1;PMS_P2;Temp;Humidity;BMP_temperature;BMP_pressure;BME280_temperature;BME280_humidity;BME280_pressure;Samples;Min_cycle;Max_cycle;Signal;HPM_P1;HPM_P2
2022/01/20 00:00:20;;;;;;;0.00;0.00;;;4.30;99.90;;;;;;5144467;27;20019;-77
2022/01/20 00:02:50;;;;;;;0.00;0.00;;;4.30;99.90;;;;;;5125000;27;20107;-76
2022/01/20 00:26:56;;;;;;;0.00;0.00;;;4.40;99.90;;;;;;5143552;27;20030;-75
2022/01/20 00:29:27;;;;;;;0.00;0.00;;;4.40;99.90;;;;;;5113041;28;20041;-74
2022/01/20 00:32:17;;;;;;;0.00;0.00;;;4.40;99.90;;;;;;5104899;28;20019;-74
2022/01/20 00:35:26;;;;;;;0.00;0.00;;;4.30;99.90;;;;;;5121371;28;20043;-74
2022/01/20 00:37:30;;;;;;;0.00;0.00;;;4.30;99.90;;;;;;5113644;28;20032;-73
2022/01/20 00:39:58;;;;;;;0.00;0.00;;;4.40;99.90;;;;;;5129800;27;20330;-79
2022/01/20 00:42:24;;;;;;;0.00;0.00;;;4.40;99.90;;;;;;5124946;27;20023;-78
2022/01/20 00:44:51;;;;;;;0.00;0.00;;;4.40;99.90;;;;;;5124988;27;20212;-78
2022/01/20 00:47:18;;;;;;;0.00;0.00;;;4.40;99.90;;;;;;5123880;28;20052;-79
2022/01/20 00:49:45;;;;;;;0.00;0.00;;;4.40;99.90;;;;;;5124361;27;20120;-78
2022/01/20 00:52:11;;;;;;;0.00;0.00;;;4.40;99.90;;;;;;5143539;27;20317;-77
2022/01/20 00:54:38;;;;;;;0.00;0.00;;;4.50;99.90;;;;;;5142527;28;20054;-78
2022/01/20 00:57:04;;;;;;;0.00;0.00;;;4.50;99.90;;;;;;5125183;28;20390;-77
2022/01/20 00:59:31;;;;;;;0.00;0.00;;;4.50;99.90;;;;;;5124600;27;20026;-76
2022/01/20 01:01:59;;;;;;;0.00;0.00;;;4.50;99.90;;;;;;5143266;27;20019;-76
2022/01/20 01:04:26;;;;;;;0.00;0.00;;;4.50;99.90;;;;;;5142500;28;20062;-76
2022/01/20 01:09:32;;;;;;;0.00;0.00;;;4.60;99.90;;;;;;5142472;28;20026;-74
2022/01/20 01:12:02;;;;;;;0.00;0.00;;;4.70;99.90;;;;;;5143167;28;20339;-72
2022/01/20 01:14:31;;;;;;;0.00;0.00;;;4.80;99.90;;;;;;5124692;28;20179;-76
2022/01/20 01:24:43;;;;;;;0.00;0.00;;;4.80;99.90;;;;;;5130108;28;20106;-75
2022/01/20 01:27:11;;;;;;;0.00;0.00;;;4.80;99.90;;;;;;5107119;28;20024;-74
2022/01/20 01:32:06;;;;;;;0.00;0.00;;;4.70;99.90;;;;;;5122532;28;20043;-73
2022/01/20 01:34:34;;;;;;;0.00;0.00;;;4.80;99.90;;;;;;5103555;28;20027;-74
2022/01/20 01:39:26;;;;;;;0.00;0.00;;;4.80;99.90;;;;;;5142723;28;20373;-74
2022/01/20 01:41:52;;;;;;;0.00;0.00;;;4.80;99.90;;;;;;5142403;28;20042;-73
2022/01/20 01:44:24;;;;;;;0.00;0.00;;;4.80;99.90;;;;;;5142975;28;20365;-73
2022/01/20 01:46:51;;;;;;;0.00;0.00;;;4.90;99.90;;;;;;5123810;28;20094;-73
2022/01/20 01:49:18;;;;;;;0.00;0.00;;;4.80;99.90;;;;;;5116996;28;20016;-73
2022/01/20 01:51:44;;;;;;;0.00;0.00;;;4.90;99.90;;;;;;5121683;28;20019;-74
2022/01/20 01:54:12;;;;;;;0.00;0.00;;;4.80;99.90;;;;;;5103662;28;20337;-79
2022/01/20 01:56:38;;;;;;;0.00;0.00;;;4.80;99.90;;;;;;5103216;28;20299;-77
2022/01/20 01:59:05;;;;;;;0.00;0.00;;;4.80;99.90;;;;;;5122079;28;20043;-77
2022/01/20 02:01:34;;;;;;;0.00;0.00;;;4.80;99.90;;;;;;5121813;28;20031;-75
2022/01/20 02:04:10;;;;;;;0.00;0.00;;;4.70;99.90;;;;;;5103563;28;20361;-77
2022/01/20 02:18:09;;;;;;;0.00;0.00;;;4.90;99.90;;;;;;5122323;28;20055;-77
2022/01/20 02:20:13;;;;;;;0.00;0.00;;;4.90;99.90;;;;;;5117946;28;20031;-80
2022/01/20 02:22:57;;;;;;;0.00;0.00;;;4.80;99.90;;;;;;5125136;28;20126;-80
2022/01/20 02:25:26;;;;;;;0.00;0.00;;;4.90;99.90;;;;;;5109122;28;20039;-80
2022/01/20 02:27:52;;;;;;;;;;;4.90;99.90;;;;;;5107422;28;20015;-79
2022/01/20 02:30:20;;;;;;;0.00;0.00;;;5.00;99.90;;;;;;5107638;28;19954;-76
2022/01/20 02:32:54;;;;;;;0.00;0.00;;;5.00;99.90;;;;;;5106743;28;20017;-76
2022/01/20 02:35:21;;;;;;;0.00;0.00;;;4.90;99.90;;;;;;5123124;27;20035;-74
2022/01/20 02:37:49;;;;;;;0.00;0.00;;;5.00;99.90;;;;;;5145394;27;20152;-73
2022/01/20 02:44:48;;;;;;;0.00;0.00;;;5.00;99.90;;;;;;5126951;27;20019;-74
2022/01/20 02:46:04;;;;;;;0.00;0.00;;;5.00;99.90;;;;;;5145317;27;20021;-74
2022/01/20 02:48:30;;;;;;;0.00;0.00;;;5.00;99.90;;;;;;5136257;27;20022;-74
2022/01/20 02:50:57;;;;;;;0.00;0.00;;;5.00;99.90;;;;;;5098859;28;20425;-73
2022/01/20 02:53:23;;;;;;;0.00;0.00;;;5.00;99.90;;;;;;5117922;27;20023;-75
2022/01/20 02:55:49;;;;;;;0.00;0.00;;;5.00;99.90;;;;;;5122734;27;20019;-77
2022/01/20 02:58:15;;;;;;;0.00;0.00;;;5.10;99.90;;;;;;5100886;27;20030;-76
2022/01/20 03:00:41;;;;;;;0.00;0.00;;;5.10;99.90;;;;;;5114318;27;20043;-77
2022/01/20 03:03:06;;;;;;;0.00;0.00;;;5.10;99.90;;;;;;5117533;27;20062;-78
2022/01/20 03:05:33;;;;;;;0.00;0.00;;;5.20;99.90;;;;;;5113670;27;20335;-77
2022/01/20 03:08:00;;;;;;;0.00;0.00;;;5.20;99.90;;;;;;5127280;27;20027;-76
2022/01/20 03:10:27;;;;;;;0.00;0.00;;;5.20;99.90;;;;;;5124442;27;20028;-78
2022/01/20 03:12:52;;;;;;;0.00;0.00;;;5.30;99.90;;;;;;5114916;27;20019;-79
2022/01/20 03:15:18;;;;;;;0.00;0.00;;;5.30;99.90;;;;;;5107817;27;20580;-77
2022/01/20 03:17:44;;;;;;;0.00;0.00;;;5.30;99.90;;;;;;5105216;27;20019;-80
2022/01/20 03:20:11;;;;;;;0.00;0.00;;;5.30;99.90;;;;;;5106876;28;20229;-81
2022/01/20 03:22:37;;;;;;;0.00;0.00;;;5.30;99.90;;;;;;5106588;28;20047;-79
2022/01/20 03:25:03;;;;;;;0.00;0.00;;;5.30;99.90;;;;;;5123927;27;20026;-81
2022/01/20 03:27:29;;;;;;;0.00;0.00;;;5.30;99.90;;;;;;5127529;27;20019;-81
2022/01/20 03:29:55;;;;;;;0.00;0.00;;;5.30;99.90;;;;;;5145300;27;20364;-81
2022/01/20 03:32:20;;;;;;;0.00;0.00;;;5.40;99.90;;;;;;5145697;27;20023;-77
2022/01/20 03:34:46;;;;;;;0.00;0.00;;;5.30;99.90;;;;;;5144718;27;20094;-76
2022/01/20 03:37:31;;;;;;;0.00;0.00;;;5.40;99.90;;;;;;5125848;27;20019;-77
2022/01/20 03:39:56;;;;;;;0.00;0.00;;;5.40;99.90;;;;;;5143732;27;20081;-77
2022/01/20 03:42:22;;;;;;;0.00;0.00;;;5.40;99.90;;;;;;5144519;27;20027;-76
2022/01/20 03:44:48;;;;;;;0.00;0.00;;;5.40;99.90;;;;;;5125299;27;20019;-78
2022/01/20 03:47:14;;;;;;;0.00;0.00;;;5.40;99.90;;;;;;5126869;27;20019;-78
2022/01/20 03:49:52;;;;;;;0.00;0.00;;;5.40;99.90;;;;;;5125456;27;20228;-77
2022/01/20 03:52:19;;;;;;;0.00;0.00;;;5.40;99.90;;;;;;5145069;27;20082;-78
2022/01/20 03:54:44;;;;;;;0.00;0.00;;;5.30;99.90;;;;;;5112270;28;20077;-76
2022/01/20 03:57:10;;;;;;;0.00;0.00;;;5.30;99.90;;;;;;5105676;28;20094;-75
2022/01/20 03:59:36;;;;;;;0.00;0.00;;;5.30;99.90;;;;;;5123851;28;20019;-75
2022/01/20 04:02:05;;;;;;;0.00;0.00;;;5.30;99.90;;;;;;5123057;28;20241;-76
2022/01/20 04:04:31;;;;;;;0.00;0.00;;;5.40;99.90;;;;;;5124103;28;20050;-77
2022/01/20 04:06:57;;;;;;;0.00;0.00;;;5.30;99.90;;;;;;5105099;28;20294;-77
2022/01/20 04:09:23;;;;;;;0.00;0.00;;;5.30;99.90;;;;;;5114997;27;20072;-73
2022/01/20 04:11:49;;;;;;;0.00;0.00;;;5.40;99.90;;;;;;5124989;27;20309;-74
2022/01/20 04:14:15;;;;;;;0.00;0.00;;;5.50;99.90;;;;;;5126245;27;20310;-76
2022/01/20 04:17:01;;;;;;;0.00;0.00;;;5.40;99.90;;;;;;5125388;27;20064;-73
2022/01/20 04:19:27;;;;;;;0.00;0.00;;;5.40;99.90;;;;;;5125395;27;20031;-74
2022/01/20 04:21:53;;;;;;;0.00;0.00;;;5.50;99.90;;;;;;5125304;27;20030;-76
2022/01/20 04:24:19;;;;;;;0.00;0.00;;;5.50;99.90;;;;;;5133647;27;20214;-77
2022/01/20 04:26:47;;;;;;;0.00;0.00;;;5.50;99.90;;;;;;5120888;28;20081;-75
2022/01/20 04:29:14;;;;;;;0.00;0.00;;;5.40;99.90;;;;;;5123365;28;20037;-75
2022/01/20 04:31:41;;;;;;;0.00;0.00;;;5.40;99.90;;;;;;5121235;28;20020;-73
2022/01/20 04:34:08;;;;;;;0.00;0.00;;;5.40;99.90;;;;;;5121582;28;20027;-75
2022/01/20 04:36:38;;;;;;;0.00;0.00;;;5.50;99.90;;;;;;5121573;28;20019;-74
2022/01/20 04:39:07;;;;;;;0.00;0.00;;;5.50;99.90;;;;;;5129889;27;20011;-75
2022/01/20 04:41:33;;;;;;;0.00;0.00;;;5.50;99.90;;;;;;5143122;27;20015;-75
2022/01/20 04:44:01;;;;;;;0.00;0.00;;;5.40;99.90;;;;;;5124506;27;20086;-78
2022/01/20 04:59:31;;;;;;;0.00;0.00;;;5.50;99.90;;;;;;5143389;27;20026;-77
2022/01/20 05:01:57;;;;;;;0.00;0.00;;;5.50;99.90;;;;;;5125167;28;20015;-86
2022/01/20 05:04:24;;;;;;;0.00;0.00;;;5.50;99.90;;;;;;5117826;28;20052;-87
2022/01/20 05:06:52;;;;;;;0.00;0.00;;;5.50;99.90;;;;;;5123711;28;20076;-84
2022/01/20 05:09:20;;;;;;;0.00;0.00;;;5.50;99.90;;;;;;5123781;28;20003;-78
2022/01/20 05:11:49;;;;;;;0.00;0.00;;;5.50;99.90;;;;;;5121396;28;20360;-77
2022/01/20 05:14:15;;;;;;;0.00;0.00;;;5.50;99.90;;;;;;5123372;28;20028;-78
2022/01/20 05:16:40;;;;;;;0.00;0.00;;;5.50;99.90;;;;;;5122834;28;20028;-75
2022/01/20 05:19:06;;;;;;;0.00;0.00;;;5.50;99.90;;;;;;5120994;28;20090;-78
2022/01/20 05:21:32;;;;;;;0.00;0.00;;;5.50;99.90;;;;;;5121860;28;20027;-78
2022/01/20 05:23:58;;;;;;;0.00;0.00;;;5.50;99.90;;;;;;5117594;28;20015;-78
2022/01/20 05:26:24;;;;;;;0.00;0.00;;;5.50;99.90;;;;;;5105091;28;20162;-79
2022/01/20 05:29:08;;;;;;;0.00;0.00;;;5.50;99.90;;;;;;5122089;28;20015;-77
2022/01/20 05:31:34;;;;;;;0.00;0.00;;;5.40;99.90;;;;;;5104489;28;20086;-80
2022/01/20 05:33:59;;;;;;;0.00;0.00;;;5.40;99.90;;;;;;5104183;28;20183;-77
2022/01/20 05:36:25;;;;;;;0.00;0.00;;;5.40;99.90;;;;;;5121799;28;20030;-77
2022/01/20 05:38:52;;;;;;;0.00;0.00;;;5.40;99.90;;;;;;5124535;28;20200;-81
2022/01/20 05:41:20;;;;;;;0.00;0.00;;;5.40;99.90;;;;;;5124699;28;20021;-79
2022/01/20 05:43:46;;;;;;;0.00;0.00;;;5.40;99.90;;;;;;5124416;28;20080;-76
2022/01/20 05:46:14;;;;;;;0.00;0.00;;;5.50;99.90;;;;;;5125065;28;20023;-75
2022/01/20 05:48:46;;;;;;;0.00;0.00;;;5.50;99.90;;;;;;5124721;28;20355;-75
2022/01/20 05:51:12;;;;;;;0.00;0.00;;;5.50;99.90;;;;;;5125239;28;20328;-77
2022/01/20 05:53:38;;;;;;;0.00;0.00;;;5.50;99.90;;;;;;5122973;28;20031;-85
2022/01/20 05:56:04;;;;;;;0.00;0.00;;;5.40;99.90;;;;;;5126841;27;20018;-85
2022/01/20 05:58:30;;;;;;;0.00;0.00;;;5.40;99.90;;;;;;5128566;27;20294;-72
2022/01/20 06:00:56;;;;;;;0.00;0.00;;;5.40;99.90;;;;;;5145651;27;20064;-74
2022/01/20 06:03:37;;;;;;;0.00;0.00;;;5.40;99.90;;;;;;5127941;27;20039;-75
2022/01/20 06:06:13;;;;;;;0.00;0.00;;;5.50;99.90;;;;;;5125314;27;20019;-72
2022/01/20 06:08:41;;;;;;;0.00;0.00;;;5.50;99.90;;;;;;5126626;27;20030;-74
2022/01/20 06:11:08;;;;;;;0.00;0.00;;;5.40;99.90;;;;;;5119297;27;20056;-75
2022/01/20 06:13:33;;;;;;;0.00;0.00;;;5.50;99.90;;;;;;5146575;27;20023;-78
2022/01/20 06:16:00;;;;;;;0.00;0.00;;;5.40;99.90;;;;;;5145774;27;20343;-76
2022/01/20 06:18:26;;;;;;;0.00;0.00;;;5.50;99.90;;;;;;5128185;27;20015;-79
2022/01/20 06:20:52;;;;;;;0.00;0.00;;;5.40;99.90;;;;;;5126627;27;20011;-77
2022/01/20 06:23:19;;;;;;;0.00;0.00;;;5.40;99.90;;;;;;5127742;27;20056;-76
2022/01/20 06:25:46;;;;;;;0.00;0.00;;;5.40;99.90;;;;;;5127792;27;20136;-75
2022/01/20 06:28:13;;;;;;;0.00;0.00;;;5.30;99.90;;;;;;5146752;27;20018;-72
2022/01/20 06:30:40;;;;;;;0.00;0.00;;;5.30;99.90;;;;;;5128470;27;20022;-75
2022/01/20 06:33:06;;;;;;;0.00;0.00;;;5.30;99.90;;;;;;5127250;27;20306;-76
2022/01/20 06:35:32;;;;;;;0.00;0.00;;;5.30;99.90;;;;;;5140415;27;20034;-85
2022/01/20 06:37:59;;;;;;;0.00;0.00;;;5.30;99.90;;;;;;5108515;28;20020;-85
2022/01/20 06:40:25;;;;;;;0.00;0.00;;;5.30;99.90;;;;;;5125986;28;20030;-73
2022/01/20 06:42:50;;;;;;;0.00;0.00;;;5.30;99.90;;;;;;5143573;27;20015;-73
2022/01/20 06:45:18;;;;;;;0.00;0.00;;;5.20;99.90;;;;;;5114569;28;20109;-73
2022/01/20 06:47:44;;;;;;;0.00;0.00;;;5.20;99.90;;;;;;5113579;27;20030;-72
2022/01/20 06:50:12;;;;;;;0.00;0.00;;;5.20;99.90;;;;;;5112940;28;20024;-84
2022/01/20 06:52:39;;;;;;;0.00;0.00;;;5.30;99.90;;;;;;5109407;28;20020;-83
2022/01/20 06:55:07;;;;;;;0.00;0.00;;;5.30;99.90;;;;;;5118161;27;20102;-84
2022/01/20 06:57:38;;;;;;;0.00;0.00;;;5.30;99.90;;;;;;5129479;27;20046;-82
2022/01/20 07:00:16;;;;;;;0.00;0.00;;;5.30;99.90;;;;;;5128008;27;20076;-81
2022/01/20 07:02:44;;;;;;;0.00;0.00;;;5.20;99.90;;;;;;5126166;27;20345;-74
2022/01/20 07:05:15;;;;;;;0.00;0.00;;;5.30;99.90;;;;;;5145087;27;20082;-84
2022/01/20 07:07:41;;;;;;;0.00;0.00;;;5.20;99.90;;;;;;5128938;27;20023;-85
2022/01/20 07:10:08;;;;;;;0.00;0.00;;;5.20;99.90;;;;;;5128766;27;20042;-92
2022/01/20 07:12:34;;;;;;;0.00;0.00;;;5.20;99.90;;;;;;5132216;27;20134;-92
2022/01/20 07:15:00;;;;;;;0.00;0.00;;;5.20;99.90;;;;;;5128500;27;20038;-89
2022/01/20 07:17:25;;;;;;;0.00;0.00;;;5.20;99.90;;;;;;5130739;27;20044;-89
2022/01/20 07:19:51;;;;;;;0.00;0.00;;;5.20;99.90;;;;;;5148125;27;20291;-84
2022/01/20 07:22:17;;;;;;;0.00;0.00;;;5.20;99.90;;;;;;5148015;27;20011;-87
2022/01/20 07:24:43;;;;;;;0.00;0.00;;;5.10;99.90;;;;;;5148525;27;20026;-90
2022/01/20 07:27:09;;;;;;;0.00;0.00;;;5.20;99.90;;;;;;5127473;27;20408;-77
2022/01/20 07:29:35;;;;;;;0.00;0.00;;;5.20;99.90;;;;;;5127340;27;20163;-77
2022/01/20 07:32:03;;;;;;;0.00;0.00;;;5.20;99.90;;;;;;5144500;27;20336;-77
2022/01/20 07:34:30;;;;;;;0.00;0.00;;;5.20;99.90;;;;;;5126702;27;20019;-74
2022/01/20 07:36:56;;;;;;;0.00;0.00;;;5.10;99.90;;;;;;5144327;27;20023;-74
2022/01/20 07:39:22;;;;;;;0.00;0.00;;;5.20;99.90;;;;;;5125536;27;20011;-74
2022/01/20 07:41:48;;;;;;;0.00;0.00;;;5.10;99.90;;;;;;5124225;27;20064;-75
2022/01/20 07:44:17;;;;;;;0.00;0.00;;;5.10;99.90;;;;;;5125973;27;20056;-81
2022/01/20 07:46:46;;;;;;;;;;;5.10;99.90;;;;;;5145556;27;20294;-79
2022/01/20 07:49:12;;;;;;;0.00;0.00;;;5.20;99.90;;;;;;5120912;27;19907;-79
2022/01/20 07:51:38;;;;;;;0.00;0.00;;;5.10;99.90;;;;;;5126653;27;20022;-75
2022/01/20 07:54:04;;;;;;;0.00;0.00;;;5.20;99.90;;;;;;5125847;27;20023;-75
2022/01/20 07:56:30;;;;;;;0.00;0.00;;;5.20;99.90;;;;;;5126390;27;20128;-86
2022/01/20 07:58:55;;;;;;;0.00;0.00;;;5.20;99.90;;;;;;5123297;27;20019;-75
2022/01/20 08:01:24;;;;;;;0.00;0.00;;;5.30;99.90;;;;;;5125690;27;20048;-76
2022/01/20 08:03:52;;;;;;;0.00;0.00;;;5.30;99.90;;;;;;5144691;27;20087;-76
2022/01/20 08:06:19;;;;;;;0.00;0.00;;;5.30;99.90;;;;;;5144730;27;20011;-76
2022/01/20 08:08:46;;;;;;;0.00;0.00;;;5.30;99.90;;;;;;5126370;27;20298;-76
2022/01/20 08:11:12;;;;;;;0.00;0.00;;;5.30;99.90;;;;;;5144384;27;20295;-78
2022/01/20 08:13:37;;;;;;;0.00;0.00;;;5.40;99.90;;;;;;5126487;27;20056;-77
2022/01/20 08:16:03;;;;;;;0.00;0.00;;;5.30;99.90;;;;;;5143441;27;20019;-78
2022/01/20 08:18:29;;;;;;;0.00;0.00;;;5.40;99.90;;;;;;5144831;27;20018;-76
2022/01/20 08:20:55;;;;;;;0.00;0.00;;;5.40;99.90;;;;;;5125810;27;20046;-76
2022/01/20 08:23:21;;;;;;;0.00;0.00;;;5.40;99.90;;;;;;5126294;27;20236;-76
2022/01/20 08:25:47;;;;;;;0.00;0.00;;;5.30;99.90;;;;;;5144478;27;20316;-76
2022/01/20 08:28:13;;;;;;;0.00;0.00;;;5.30;99.90;;;;;;5125532;27;20086;-77
2022/01/20 08:30:41;;;;;;;0.00;0.00;;;5.30;99.90;;;;;;5144372;27;20125;-77
2022/01/20 08:33:07;;;;;;;0.00;0.00;;;5.40;99.90;;;;;;5108805;27;20030;-74
2022/01/20 08:35:33;;;;;;;0.00;0.00;;;5.30;99.90;;;;;;5123477;27;20031;-75
2022/01/20 08:38:00;;;;;;;0.00;0.00;;;5.30;99.90;;;;;;5143395;27;20050;-75
2022/01/20 08:40:26;;;;;;;0.00;0.00;;;5.30;99.90;;;;;;5122032;27;20011;-76
2022/01/20 08:42:54;;;;;;;0.00;0.00;;;5.30;99.90;;;;;;5141861;27;20302;-75
2022/01/20 08:45:23;;;;;;;0.00;0.00;;;5.30;99.90;;;;;;5140088;27;20048;-76
2022/01/20 08:47:52;;;;;;;0.00;0.00;;;5.30;99.90;;;;;;5143972;27;20027;-73
2022/01/20 08:50:18;;;;;;;0.00;0.00;;;5.40;99.90;;;;;;5125279;28;20022;-71
2022/01/20 08:52:45;;;;;;;0.00;0.00;;;5.30;99.90;;;;;;5125861;27;20020;-72
2022/01/20 08:55:11;;;;;;;0.00;0.00;;;5.30;99.90;;;;;;5124729;27;20033;-73
2022/01/20 08:57:37;;;;;;;0.00;0.00;;;5.30;99.90;;;;;;5143632;27;20020;-78
2022/01/20 09:00:05;;;;;;;0.00;0.00;;;5.40;99.90;;;;;;5143361;27;20039;-78
2022/01/20 09:02:31;;;;;;;0.00;0.00;;;5.40;99.90;;;;;;5125548;28;20244;-78
2022/01/20 09:04:59;;;;;;;0.00;0.00;;;5.40;99.90;;;;;;5144378;27;20322;-78
2022/01/20 09:07:24;;;;;;;0.00;0.00;;;5.40;99.90;;;;;;5143787;27;20026;-70
2022/01/20 09:09:50;;;;;;;0.00;0.00;;;5.50;99.90;;;;;;5144373;28;20016;-74
2022/01/20 09:17:31;;;;;;;0.00;0.00;;;5.30;99.90;;;;;;5143891;28;20202;-79
2022/01/20 09:19:58;;;;;;;0.00;0.00;;;5.20;99.90;;;;;;5125740;28;20030;-79
2022/01/20 09:22:26;;;;;;;0.00;0.00;;;5.20;99.90;;;;;;5125872;28;20011;-76
2022/01/20 09:24:52;;;;;;;0.00;0.00;;;5.20;99.90;;;;;;5125378;28;20027;-73
2022/01/20 09:27:18;;;;;;;0.00;0.00;;;5.20;99.90;;;;;;5126812;27;20345;-74
2022/01/20 09:29:45;;;;;;;0.00;0.00;;;5.20;99.90;;;;;;5147787;27;20019;-84
2022/01/20 09:32:12;;;;;;;0.00;0.00;;;5.20;99.90;;;;;;5132196;27;20023;-88
2022/01/20 09:34:39;;;;;;;0.00;0.00;;;5.20;99.90;;;;;;5149729;27;20035;-88
2022/01/20 09:37:05;;;;;;;0.00;0.00;;;5.30;99.90;;;;;;5149514;27;20023;-87
2022/01/20 09:39:31;;;;;;;0.00;0.00;;;5.40;99.90;;;;;;5149287;27;20046;-87
2022/01/20 09:42:00;;;;;;;0.00;0.00;;;5.40;99.90;;;;;;5147552;27;20302;-85
2022/01/20 09:44:26;;;;;;;0.00;0.00;;;5.40;99.90;;;;;;5142895;27;20015;-85
2022/01/20 09:46:52;;;;;;;0.00;0.00;;;5.40;99.90;;;;;;5126897;27;20241;-87
2022/01/20 09:49:18;;;;;;;0.00;0.00;;;5.40;99.90;;;;;;5147414;27;20027;-80
2022/01/20 09:51:44;;;;;;;0.00;0.00;;;5.40;99.90;;;;;;5129408;27;20022;-80
2022/01/20 09:54:11;;;;;;;0.00;0.00;;;5.50;99.90;;;;;;5139274;27;20023;-82
2022/01/20 09:56:38;;;;;;;0.00;0.00;;;5.50;99.90;;;;;;5138061;27;20074;-80
2022/01/20 09:59:04;;;;;;;0.00;0.00;;;5.60;99.90;;;;;;5137295;27;20014;-81
2022/01/20 10:01:40;;;;;;;0.00;0.00;;;5.60;99.90;;;;;;5124018;27;20050;-82
2022/01/20 10:04:17;;;;;;;0.00;0.00;;;5.60;99.90;;;;;;5134750;27;20342;-81
2022/01/20 10:06:58;;;;;;;0.00;0.00;;;5.70;99.90;;;;;;5126852;27;20011;-82
2022/01/20 10:09:30;;;;;;;0.00;0.00;;;5.60;99.90;;;;;;5115940;27;20064;-77
2022/01/20 10:11:56;;;;;;;0.00;0.00;;;5.70;99.90;;;;;;5137741;27;20280;-79
2022/01/20 10:14:22;;;;;;;0.00;0.00;;;5.70;99.90;;;;;;5132490;27;20020;-79
2022/01/20 10:16:47;;;;;;;0.00;0.00;;;5.80;99.90;;;;;;5117517;27;20238;-72
2022/01/20 10:19:29;;;;;;;0.00;0.00;;;5.80;99.90;;;;;;5136872;27;20041;-80
2022/01/20 10:21:55;;;;;;;0.00;0.00;;;5.80;99.90;;;;;;5132613;27;20008;-82
2022/01/20 10:24:21;;;;;;;0.00;0.00;;;5.80;99.90;;;;;;5144108;27;20029;-81
2022/01/20 10:26:51;;;;;;;0.00;0.00;;;5.80;99.90;;;;;;5126444;27;20015;-81
2022/01/20 10:29:17;;;;;;;0.00;0.00;;;5.80;99.90;;;;;;5132159;27;20053;-75
2022/01/20 10:31:46;;;;;;;0.00;0.00;;;5.80;99.90;;;;;;5124753;27;20109;-80
2022/01/20 10:34:31;;;;;;;0.00;0.00;;;5.80;99.90;;;;;;5119318;27;20187;-80
2022/01/20 10:37:12;;;;;;;0.00;0.00;;;5.80;99.90;;;;;;5138248;27;20042;-75
2022/01/20 10:39:48;;;;;;;0.00;0.00;;;6.00;99.90;;;;;;5122077;27;20023;-77
2022/01/20 10:42:17;;;;;;;0.00;0.00;;;5.90;99.90;;;;;;5122508;27;20018;-76
2022/01/20 10:44:45;;;;;;;0.00;0.00;;;5.80;99.90;;;;;;5138070;27;20023;-75
2022/01/20 10:47:15;;;;;;;;;;;5.90;99.90;;;;;;5119093;27;20019;-76
2022/01/20 10:49:42;;;;;;;0.00;0.00;;;5.80;99.90;;;;;;5138168;27;20181;-75
2022/01/20 10:52:23;;;;;;;0.00;0.00;;;5.80;99.90;;;;;;5136217;27;20026;-76
2022/01/20 10:54:52;;;;;;;0.00;0.00;;;5.90;99.90;;;;;;5139412;27;20094;-77
2022/01/20 10:57:33;;;;;;;0.00;0.00;;;5.80;99.90;;;;;;5139417;27;20274;-77
2022/01/20 11:00:04;;;;;;;0.00;0.00;;;5.80;99.90;;;;;;5124467;27;20039;-75
2022/01/20 11:02:30;;;;;;;0.00;0.00;;;5.80;99.90;;;;;;5124123;27;20091;-78
2022/01/20 11:04:58;;;;;;;0.00;0.00;;;5.80;99.90;;;;;;5126767;27;20075;-76
2022/01/20 11:07:25;;;;;;;0.00;0.00;;;5.80;99.90;;;;;;5123380;27;20191;-77
2022/01/20 11:09:58;;;;;;;0.00;0.00;;;5.80;99.90;;;;;;5124389;27;20015;-77
2022/01/20 11:12:24;;;;;;;0.00;0.00;;;5.80;99.90;;;;;;5131913;27;20233;-76
2022/01/20 11:14:52;;;;;;;0.00;0.00;;;5.80;99.90;;;;;;5130880;27;20035;-77
2022/01/20 11:17:30;;;;;;;0.00;0.00;;;5.90;99.90;;;;;;5143843;27;20086;-79
2022/01/20 11:20:08;;;;;;;0.00;0.00;;;5.90;99.90;;;;;;5122446;27;20194;-78
2022/01/20 11:22:34;;;;;;;0.00;0.00;;;5.90;99.90;;;;;;5130390;27;20090;-80
2022/01/20 11:25:06;;;;;;;0.00;0.00;;;6.10;99.90;;;;;;5119974;27;20164;-78
2022/01/20 11:27:40;;;;;;;0.00;0.00;;;6.10;99.90;;;;;;5120919;28;20330;-84
2022/01/20 11:30:23;;;;;;;0.00;0.00;;;6.10;99.90;;;;;;5120878;27;20026;-73
2022/01/20 11:33:05;;;;;;;0.00;0.00;;;6.10;99.90;;;;;;5144444;27;20262;-82
2022/01/20 11:35:36;;;;;;;0.00;0.00;;;6.10;99.90;;;;;;5112605;27;20031;-81
2022/01/20 11:38:02;;;;;;;0.00;0.00;;;6.00;99.90;;;;;;5106346;28;20083;-82
2022/01/20 11:40:27;;;;;;;0.00;0.00;;;6.00;99.90;;;;;;5115131;28;20031;-82
2022/01/20 11:43:10;;;;;;;0.00;0.00;;;6.10;99.90;;;;;;5135397;27;20305;-83
2022/01/20 11:45:39;;;;;;;0.00;0.00;;;6.00;99.90;;;;;;5134861;27;20045;-83
2022/01/20 11:48:22;;;;;;;0.00;0.00;;;6.10;99.90;;;;;;5136147;27;20019;-82
2022/01/20 11:51:04;;;;;;;0.00;0.00;;;6.10;99.90;;;;;;5134578;27;20038;-83
2022/01/20 11:53:30;;;;;;;0.00;0.00;;;6.10;99.90;;;;;;5117163;27;20015;-80
2022/01/20 11:55:56;;;;;;;0.00;0.00;;;6.10;99.90;;;;;;5124235;27;20026;-79
2022/01/20 11:58:24;;;;;;;0.00;0.00;;;6.10;99.90;;;;;;5132856;27;20019;-84
2022/01/20 12:00:59;;;;;;;0.00;0.00;;;6.10;99.90;;;;;;5136344;27;20042;-82
2022/01/20 12:03:24;;;;;;;0.00;0.00;;;6.20;99.90;;;;;;5125872;27;20111;-83
2022/01/20 12:06:07;;;;;;;0.00;0.00;;;6.10;99.90;;;;;;5136450;27;20214;-83
2022/01/20 12:08:33;;;;;;;0.00;0.00;;;6.10;99.90;;;;;;5133678;27;20011;-82
2022/01/20 12:11:07;;;;;;;0.00;0.00;;;6.10;99.90;;;;;;5121393;27;20015;-82
2022/01/20 12:13:45;;;;;;;0.00;0.00;;;6.20;99.90;;;;;;5135871;27;20325;-84
2022/01/20 12:16:21;;;;;;;0.00;0.00;;;6.20;99.90;;;;;;5124746;27;20010;-82
2022/01/20 12:18:51;;;;;;;0.00;0.00;;;6.20;99.90;;;;;;5117961;27;20050;-82
2022/01/20 12:21:17;;;;;;;0.00;0.00;;;6.10;99.90;;;;;;5122965;27;20026;-84
2022/01/20 12:23:45;;;;;;;0.00;0.00;;;6.10;99.90;;;;;;5116619;27;20015;-80
2022/01/20 12:26:10;;;;;;;0.00;0.00;;;6.10;99.90;;;;;;5124008;27;20084;-76
2022/01/20 12:28:36;;;;;;;0.00;0.00;;;6.20;99.90;;;;;;5122111;27;20027;-79
2022/01/20 12:31:04;;;;;;;0.00;0.00;;;6.10;99.90;;;;;;5142375;27;20019;-73
2022/01/20 12:33:35;;;;;;;0.00;0.00;;;6.20;99.90;;;;;;5123801;27;20027;-72
2022/01/20 12:36:04;;;;;;;0.00;0.00;;;6.20;99.90;;;;;;5128676;27;20043;-78
2022/01/20 12:38:36;;;;;;;0.00;0.00;;;6.40;99.90;;;;;;5098444;28;20015;-70
2022/01/20 12:41:08;;;;;;;0.00;0.00;;;6.50;99.90;;;;;;5097323;28;20090;-73
2022/01/20 12:43:48;;;;;;;0.00;0.00;;;6.60;99.90;;;;;;5130381;27;20035;-75
2022/01/20 12:46:23;;;;;;;0.00;0.00;;;6.80;99.90;;;;;;5116522;27;20210;-72
2022/01/20 12:49:05;;;;;;;0.00;0.00;;;6.80;99.90;;;;;;5097960;27;20114;-75
2022/01/20 12:51:43;;;;;;;0.00;0.00;;;6.80;99.90;;;;;;5114986;27;20208;-72
2022/01/20 12:54:18;;;;;;;0.00;0.00;;;6.80;99.90;;;;;;5115242;27;20039;-70
2022/01/20 12:56:46;;;;;;;0.00;0.00;;;6.80;99.90;;;;;;5118652;27;20298;-74
2022/01/20 12:59:21;;;;;;;0.00;0.00;;;6.70;99.90;;;;;;5116894;27;20051;-71
2022/01/20 13:01:49;;;;;;;0.00;0.00;;;6.60;99.90;;;;;;5099262;28;20037;-73
2022/01/20 13:04:17;;;;;;;0.00;0.00;;;6.60;99.90;;;;;;5115858;27;20059;-72
2022/01/20 13:06:51;;;;;;;0.00;0.00;;;6.50;99.90;;;;;;5100059;28;20026;-72
2022/01/20 13:09:19;;;;;;;0.00;0.00;;;6.50;99.90;;;;;;5115682;27;20019;-73
2022/01/20 13:11:59;;;;;;;0.00;0.00;;;6.50;99.90;;;;;;5115189;28;20028;-73
2022/01/20 13:14:41;;;;;;;0.00;0.00;;;6.40;99.90;;;;;;5117192;28;20036;-75
2022/01/20 13:19:59;;;;;;;0.00;0.00;;;6.50;99.90;;;;;;5115842;28;20062;-71
2022/01/20 13:22:53;;;;;;;0.00;0.00;;;6.40;99.90;;;;;;5115504;28;20035;-73
2022/01/20 13:25:23;;;;;;;0.00;0.00;;;6.40;99.90;;;;;;5098235;28;20118;-73
2022/01/20 13:28:03;;;;;;;0.00;0.00;;;6.40;99.90;;;;;;5117404;28;20131;-70
2022/01/20 13:30:40;;;;;;;0.00;0.00;;;6.40;99.90;;;;;;5115967;28;20091;-70
2022/01/20 13:33:17;;;;;;;0.00;0.00;;;6.40;99.90;;;;;;5114028;28;20019;-70
2022/01/20 13:35:48;;;;;;;0.00;0.00;;;6.40;99.90;;;;;;5114535;28;20375;-69
2022/01/20 13:38:15;;;;;;;0.00;0.00;;;6.40;99.90;;;;;;5109294;28;20055;-70
2022/01/20 13:40:46;;;;;;;0.00;0.00;;;6.40;99.90;;;;;;5111778;28;20118;-70
2022/01/20 13:46:06;;;;;;;0.00;0.00;;;6.40;99.90;;;;;;5114873;28;20054;-69
2022/01/20 13:48:51;;;;;;;0.00;0.00;;;6.40;99.90;;;;;;5110934;28;20028;-70
2022/01/20 13:51:25;;;;;;;0.00;0.00;;;6.40;99.90;;;;;;5097052;28;20240;-69
2022/01/20 13:53:56;;;;;;;0.00;0.00;;;6.40;99.90;;;;;;5111825;28;20016;-68
2022/01/20 13:56:22;;;;;;;0.00;0.00;;;6.40;99.90;;;;;;5115859;28;20290;-68
2022/01/20 13:58:48;;;;;;;0.00;0.00;;;6.50;99.90;;;;;;5110761;28;20038;-68
2022/01/20 14:01:13;;;;;;;0.00;0.00;;;6.30;99.90;;;;;;5117096;28;20012;-70
2022/01/20 14:03:40;;;;;;;0.00;0.00;;;6.00;99.90;;;;;;5097541;28;20409;-70
2022/01/20 14:06:06;;;;;;;0.00;0.00;;;5.70;99.90;;;;;;5097369;28;20023;-69
2022/01/20 14:08:36;;;;;;;0.00;0.00;;;5.30;99.90;;;;;;5116785;28;20100;-68
2022/01/20 14:11:02;;;;;;;0.00;0.00;;;5.00;99.90;;;;;;5108899;28;20027;-72
2022/01/20 14:13:28;;;;;;;0.00;0.00;;;4.80;99.90;;;;;;5096384;27;20043;-68
2022/01/20 14:15:55;;;;;;;0.00;0.00;;;4.50;99.90;;;;;;5118382;27;20073;-69
2022/01/20 14:18:23;;;;;;;0.00;0.00;;;4.20;99.90;;;;;;5119710;27;20035;-68
2022/01/20 14:20:49;;;;;;;0.00;0.00;;;4.00;99.90;;;;;;5103329;27;20374;-76